Time;durP1;ratioP1;P1;durP2;ratioP2;P2;SDS_P1;SDS_P2;PMS_P1;PMS_P2;Temp;Humidity;BMP_temperature;BMP_pressure;BME280_temperature;BME280_humidity;BME280_pressure;Samples;Min_cycle;Max_cycle;Signal;HPM_P1;HPM_P2
2022/04/05 00:00:44;;;;;;;27.48;16.65;;;;;;;;;;4933738;29;20039;-70
2022/04/05 00:03:10;;;;;;;25.65;15.68;;;;;;;;;;4933827;29;20075;-69
2022/04/05 00:05:36;;;;;;;31.52;16.20;;;;;;;;;;4933894;29;20024;-68
2022/04/05 00:08:02;;;;;;;28.30;15.88;;;;;;;;;;4934090;29;20039;-68
2022/04/05 00:10:28;;;;;;;29.88;15.75;;;;;;;;;;4934101;29;20050;-69
2022/04/05 00:12:54;;;;;;;26.55;15.65;;;;;;;;;;4934008;29;20107;-69
2022/04/05 00:15:20;;;;;;;25.77;15.38;;;;;;;;;;4933948;29;20032;-74
2022/04/05 00:17:46;;;;;;;30.27;15.93;;;;;;;;;;4934067;29;20046;-67
2022/04/05 00:20:12;;;;;;;27.35;16.23;;;;;;;;;;4934121;29;20031;-67
2022/04/05 00:22:38;;;;;;;23.15;14.93;;;;;;;;;;4933515;29;20115;-67
2022/04/05 00:25:05;;;;;;;28.05;15.50;;;;;;;;;;4934133;29;20039;-67
2022/04/05 00:27:31;;;;;;;25.83;15.32;;;;;;;;;;4933666;29;20119;-67
2022/04/05 00:29:59;;;;;;;24.17;14.63;;;;;;;;;;4933518;29;20036;-68
2022/04/05 00:32:25;;;;;;;25.80;14.43;;;;;;;;;;4933572;29;20040;-67
2022/04/05 00:34:51;;;;;;;24.35;14.90;;;;;;;;;;4933520;29;20528;-76
2022/04/05 00:37:17;;;;;;;23.58;14.25;;;;;;;;;;4933566;29;20023;-68
2022/04/05 00:39:43;;;;;;;26.20;15.60;;;;;;;;;;4933133;29;20027;-68
2022/04/05 00:42:11;;;;;;;30.00;16.10;;;;;;;;;;4916291;29;20043;-66
2022/04/05 00:44:37;;;;;;;26.27;15.68;;;;;;;;;;4933757;29;20485;-72
2022/04/05 00:47:14;;;;;;;27.27;16.35;;;;;;;;;;4933643;29;20040;-66
2022/04/05 00:49:40;;;;;;;25.08;14.95;;;;;;;;;;4933809;29;20712;-68
2022/04/05 00:52:07;;;;;;;27.23;15.00;;;;;;;;;;4916064;29;20030;-68
2022/04/05 00:54:34;;;;;;;25.30;14.82;;;;;;;;;;4933927;29;20031;-68
2022/04/05 00:57:00;;;;;;;25.23;14.43;;;;;;;;;;4933668;29;20039;-67
2022/04/05 00:59:28;;;;;;;24.13;14.10;;;;;;;;;;4933224;29;20042;-68
2022/04/05 01:01:54;;;;;;;25.35;13.88;;;;;;;;;;4933256;29;20072;-68
2022/04/05 01:04:22;;;;;;;24.70;14.70;;;;;;;;;;4933424;29;20976;-68
2022/04/05 01:06:48;;;;;;;24.20;14.35;;;;;;;;;;4933182;29;20028;-68
2022/04/05 01:09:14;;;;;;;24.35;14.35;;;;;;;;;;4933355;29;20092;-68
2022/04/05 01:11:40;;;;;;;22.38;13.43;;;;;;;;;;4933173;29;20028;-68
2022/04/05 01:14:07;;;;;;;19.48;12.43;;;;;;;;;;4933275;29;20028;-69
2022/04/05 01:16:34;;;;;;;23.80;12.73;;;;;;;;;;4933133;29;20039;-68
2022/04/05 01:19:01;;;;;;;22.90;13.20;;;;;;;;;;4933280;29;20046;-68
2022/04/05 01:21:27;;;;;;;20.33;12.55;;;;;;;;;;4933067;29;20146;-67
2022/04/05 01:24:06;;;;;;;21.90;13.10;;;;;;;;;;4932886;29;20484;-68
2022/04/05 01:26:39;;;;;;;17.58;10.55;;;;;;;;;;4933165;29;20614;-68
2022/04/05 01:29:05;;;;;;;18.10;11.30;;;;;;;;;;4933094;29;20035;-68
2022/04/05 01:31:35;;;;;;;20.15;11.57;;;;;;;;;;4932986;29;20024;-68
2022/04/05 01:34:01;;;;;;;17.13;10.15;;;;;;;;;;4933152;29;20077;-68
2022/04/05 01:36:28;;;;;;;18.08;10.68;;;;;;;;;;4933063;29;20032;-68
2022/04/05 01:38:54;;;;;;;15.80;10.52;;;;;;;;;;4933236;29;20032;-68
2022/04/05 01:41:20;;;;;;;17.17;10.15;;;;;;;;;;4933104;29;20107;-68
2022/04/05 01:43:46;;;;;;;19.35;10.38;;;;;;;;;;4933060;29;20095;-68
2022/04/05 01:46:12;;;;;;;15.23;9.70;;;;;;;;;;4933154;29;20042;-68
2022/04/05 01:48:39;;;;;;;17.65;10.43;;;;;;;;;;4933204;29;20036;-68
2022/04/05 01:51:05;;;;;;;17.10;10.15;;;;;;;;;;4934769;29;20024;-68
2022/04/05 01:53:31;;;;;;;15.82;9.30;;;;;;;;;;4918538;29;20408;-67
2022/04/05 01:55:57;;;;;;;15.18;9.18;;;;;;;;;;4936416;29;20035;-67
2022/04/05 01:58:24;;;;;;;15.82;9.02;;;;;;;;;;4936540;29;20551;-67
2022/04/05 02:00:51;;;;;;;13.82;9.35;;;;;;;;;;4936618;29;20030;-67
2022/04/05 02:03:17;;;;;;;16.52;9.55;;;;;;;;;;4938139;29;20485;-68
2022/04/05 02:05:46;;;;;;;14.82;9.52;;;;;;;;;;4937813;29;20067;-71
2022/04/05 02:08:13;;;;;;;17.20;8.77;;;;;;;;;;4936254;29;20162;-68
2022/04/05 02:10:39;;;;;;;14.60;8.93;;;;;;;;;;4936524;29;20131;-68
2022/04/05 02:13:05;;;;;;;15.02;8.63;;;;;;;;;;4935976;29;20100;-68
2022/04/05 02:15:31;;;;;;;15.18;9.32;;;;;;;;;;4936414;29;20032;-67
2022/04/05 02:17:57;;;;;;;13.10;8.55;;;;;;;;;;4936279;29;20036;-71
2022/04/05 02:20:23;;;;;;;14.18;8.40;;;;;;;;;;4936209;29;20485;-67
2022/04/05 02:22:50;;;;;;;16.45;9.00;;;;;;;;;;4935920;29;20044;-67
2022/04/05 02:25:17;;;;;;;16.25;8.85;;;;;;;;;;4935794;29;20123;-67
2022/04/05 02:27:43;;;;;;;17.25;9.75;;;;;;;;;;4935742;29;20087;-69
2022/04/05 02:30:10;;;;;;;14.60;8.80;;;;;;;;;;4935827;29;20392;-68
2022/04/05 02:32:36;;;;;;;14.98;8.63;;;;;;;;;;4935475;29;20489;-79
2022/04/05 02:35:03;;;;;;;13.23;8.35;;;;;;;;;;4935838;29;20032;-67
2022/04/05 02:37:29;;;;;;;13.63;8.52;;;;;;;;;;4935291;29;20037;-68
2022/04/05 02:39:55;;;;;;;13.07;8.80;;;;;;;;;;4935565;29;20034;-68
2022/04/05 02:42:21;;;;;;;13.98;8.55;;;;;;;;;;4935377;29;20169;-68
2022/04/05 02:44:47;;;;;;;17.83;9.75;;;;;;;;;;4935462;29;20383;-78
2022/04/05 02:47:15;;;;;;;14.77;9.18;;;;;;;;;;4935594;29;20028;-77
2022/04/05 02:49:41;;;;;;;17.48;11.07;;;;;;;;;;4935355;29;20026;-68
2022/04/05 02:52:07;;;;;;;17.30;9.27;;;;;;;;;;4934978;29;20080;-68
2022/04/05 02:54:34;;;;;;;17.02;9.20;;;;;;;;;;4935030;29;20024;-68
2022/04/05 02:57:00;;;;;;;14.57;9.60;;;;;;;;;;4935263;29;20051;-68
2022/04/05 02:59:26;;;;;;;15.57;9.57;;;;;;;;;;4934838;29;20027;-68
2022/04/05 03:01:52;;;;;;;13.57;8.77;;;;;;;;;;4934320;29;20023;-67
2022/04/05 03:04:18;;;;;;;16.48;9.35;;;;;;;;;;4934683;29;20043;-68
2022/04/05 03:06:44;;;;;;;17.52;9.48;;;;;;;;;;4935085;29;20107;-68
2022/04/05 03:09:10;;;;;;;17.30;9.05;;;;;;;;;;4934988;29;20076;-69
2022/04/05 03:11:36;;;;;;;18.05;9.40;;;;;;;;;;4935477;29;20047;-68
2022/04/05 03:14:02;;;;;;;15.35;9.38;;;;;;;;;;4934922;29;20035;-67
2022/04/05 03:16:28;;;;;;;21.02;9.48;;;;;;;;;;4934876;29;20110;-67
2022/04/05 03:18:54;;;;;;;15.90;8.80;;;;;;;;;;4935111;29;20115;-68
2022/04/05 03:21:21;;;;;;;20.33;9.70;;;;;;;;;;4934934;29;20059;-68
2022/04/05 03:23:47;;;;;;;16.60;8.95;;;;;;;;;;4934547;29;20039;-67
2022/04/05 03:26:13;;;;;;;15.20;9.50;;;;;;;;;;4934865;29;20107;-72
2022/04/05 03:28:39;;;;;;;17.50;9.70;;;;;;;;;;4934666;29;20027;-68
2022/04/05 03:31:05;;;;;;;16.30;9.10;;;;;;;;;;4934630;29;20103;-67
2022/04/05 03:33:31;;;;;;;15.20;8.80;;;;;;;;;;4934561;29;20457;-68
2022/04/05 03:35:57;;;;;;;16.48;9.30;;;;;;;;;;4934618;29;20062;-68
2022/04/05 03:38:23;;;;;;;17.63;8.93;;;;;;;;;;4934630;29;20070;-68
2022/04/05 03:40:49;;;;;;;14.52;8.90;;;;;;;;;;4934478;29;20039;-68
2022/04/05 03:43:15;;;;;;;14.02;8.48;;;;;;;;;;4934551;29;20496;-69
2022/04/05 03:45:41;;;;;;;18.27;9.43;;;;;;;;;;4934256;29;20032;-68
2022/04/05 03:48:09;;;;;;;19.02;9.75;;;;;;;;;;4934437;29;20425;-68
2022/04/05 03:50:35;;;;;;;14.93;9.32;;;;;;;;;;4934373;29;20075;-68
2022/04/05 03:53:01;;;;;;;23.95;10.70;;;;;;;;;;4934109;29;20090;-68
2022/04/05 03:55:27;;;;;;;17.48;10.43;;;;;;;;;;4934197;29;20024;-67
2022/04/05 03:57:53;;;;;;;16.35;9.02;;;;;;;;;;4934350;29;20032;-68
2022/04/05 04:00:19;;;;;;;18.10;9.75;;;;;;;;;;4934078;29;20094;-68
2022/04/05 04:02:45;;;;;;;19.98;9.90;;;;;;;;;;4934028;29;20035;-67
2022/04/05 04:05:16;;;;;;;17.00;9.50;;;;;;;;;;4933958;29;20032;-74
2022/04/05 04:07:43;;;;;;;19.42;9.68;;;;;;;;;;4933843;29;20168;-68
2022/04/05 04:10:09;;;;;;;17.70;9.68;;;;;;;;;;4933919;29;20039;-67
2022/04/05 04:12:35;;;;;;;19.83;9.38;;;;;;;;;;4933560;29;20035;-68
2022/04/05 04:15:01;;;;;;;27.25;12.20;;;;;;;;;;4933419;29;20088;-68
2022/04/05 04:17:28;;;;;;;26.40;11.80;;;;;;;;;;4934081;29;20381;-68
2022/04/05 04:19:54;;;;;;;27.17;11.68;;;;;;;;;;4933768;29;20465;-68
2022/04/05 04:22:20;;;;;;;23.17;11.82;;;;;;;;;;4933348;29;20031;-68
2022/04/05 04:24:47;;;;;;;21.85;11.25;;;;;;;;;;4933420;29;20087;-67
2022/04/05 04:27:13;;;;;;;22.02;10.77;;;;;;;;;;4933579;29;20035;-67
2022/04/05 04:29:39;;;;;;;21.42;10.93;;;;;;;;;;4933191;29;20127;-70
2022/04/05 04:32:06;;;;;;;18.38;10.40;;;;;;;;;;4933355;29;20465;-67
2022/04/05 04:34:32;;;;;;;22.80;11.15;;;;;;;;;;4933504;29;20036;-67
2022/04/05 04:36:58;;;;;;;19.67;10.95;;;;;;;;;;4933602;29;20060;-68
2022/04/05 04:39:25;;;;;;;18.20;10.32;;;;;;;;;;4933594;29;20036;-68
2022/04/05 04:41:51;;;;;;;19.65;10.82;;;;;;;;;;4932877;29;20462;-68
2022/04/05 04:44:17;;;;;;;28.15;13.30;;;;;;;;;;4933465;29;20058;-68
2022/04/05 04:46:44;;;;;;;27.05;11.77;;;;;;;;;;4933494;29;20545;-76
2022/04/05 04:49:10;;;;;;;25.95;11.32;;;;;;;;;;4933571;29;20218;-69
2022/04/05 04:51:36;;;;;;;21.40;11.18;;;;;;;;;;4933414;29;20044;-68
2022/04/05 04:54:02;;;;;;;21.58;11.65;;;;;;;;;;4933594;29;20039;-68
2022/04/05 04:56:28;;;;;;;23.05;11.55;;;;;;;;;;4933624;29;20106;-68
2022/04/05 04:58:54;;;;;;;22.10;11.07;;;;;;;;;;4933399;29;20024;-67
2022/04/05 05:01:20;;;;;;;25.85;12.60;;;;;;;;;;4933113;29;20032;-68
2022/04/05 05:03:46;;;;;;;28.13;12.23;;;;;;;;;;4933541;29;20078;-69
2022/04/05 05:06:12;;;;;;;23.40;11.57;;;;;;;;;;4933363;29;20031;-68
2022/04/05 05:08:39;;;;;;;20.67;11.73;;;;;;;;;;4933414;29;20038;-69
2022/04/05 05:11:05;;;;;;;31.15;13.18;;;;;;;;;;4933174;29;20027;-79
2022/04/05 05:13:31;;;;;;;32.25;13.80;;;;;;;;;;4933317;29;20040;-71
2022/04/05 05:15:58;;;;;;;66.47;28.38;;;;;;;;;;4933260;29;20027;-69
2022/04/05 05:18:24;;;;;;;42.75;18.65;;;;;;;;;;4933379;29;20031;-77
2022/04/05 05:20:50;;;;;;;46.28;21.75;;;;;;;;;;4935282;29;20190;-79
2022/04/05 05:23:16;;;;;;;50.85;21.48;;;;;;;;;;4939981;29;20476;-67
2022/04/05 05:25:43;;;;;;;53.13;22.65;;;;;;;;;;4943911;29;20113;-77
2022/04/05 05:28:09;;;;;;;61.35;26.58;;;;;;;;;;4945649;29;20062;-70
2022/04/05 05:30:35;;;;;;;45.13;19.83;;;;;;;;;;4943652;29;20027;-68
2022/04/05 05:33:01;;;;;;;38.83;19.23;;;;;;;;;;4944874;29;20122;-68
2022/04/05 05:35:27;;;;;;;76.93;31.00;;;;;;;;;;4945340;29;20030;-67
2022/04/05 05:37:53;;;;;;;56.13;29.55;;;;;;;;;;4943479;29;20107;-71
2022/04/05 05:40:20;;;;;;;60.40;28.10;;;;;;;;;;4945347;29;20567;-72
2022/04/05 05:42:59;;;;;;;79.18;33.55;;;;;;;;;;4927791;29;20568;-70
2022/04/05 05:45:28;;;;;;;68.85;29.35;;;;;;;;;;4944915;29;20032;-70
2022/04/05 05:47:54;;;;;;;45.78;20.90;;;;;;;;;;4943793;29;20036;-71
2022/04/05 05:50:23;;;;;;;59.00;24.95;;;;;;;;;;4927651;29;20027;-71
2022/04/05 05:52:49;;;;;;;33.67;15.05;;;;;;;;;;4952476;29;20027;-72
2022/04/05 05:55:16;;;;;;;32.97;16.63;;;;;;;;;;4955461;29;20118;-70
2022/04/05 05:57:42;;;;;;;24.48;9.45;;;;;;;;;;4955383;29;20051;-72
2022/04/05 06:00:10;;;;;;;17.20;8.68;;;;;;;;;;4953544;29;20039;-71
2022/04/05 06:02:39;;;;;;;16.42;8.32;;;;;;;;;;4953838;29;20041;-71
2022/04/05 06:05:05;;;;;;;14.57;7.50;;;;;;;;;;4953765;29;20035;-72
2022/04/05 06:07:32;;;;;;;19.60;8.52;;;;;;;;;;4954985;29;20590;-72
2022/04/05 06:09:58;;;;;;;15.73;7.93;;;;;;;;;;4954152;29;20042;-72
2022/04/05 06:12:24;;;;;;;14.55;7.68;;;;;;;;;;4953400;29;20042;-71
2022/04/05 06:14:50;;;;;;;13.20;6.43;;;;;;;;;;4953319;29;20103;-69
2022/04/05 06:17:16;;;;;;;15.38;7.20;;;;;;;;;;4953780;29;20031;-70
2022/04/05 06:19:43;;;;;;;11.65;6.70;;;;;;;;;;4953469;29;20030;-66
2022/04/05 06:22:09;;;;;;;12.57;6.43;;;;;;;;;;4954411;29;20488;-68
2022/04/05 06:24:35;;;;;;;12.82;6.70;;;;;;;;;;4954526;29;20118;-66
2022/04/05 06:27:01;;;;;;;14.00;6.63;;;;;;;;;;4954828;29;20051;-69
2022/04/05 06:29:27;;;;;;;9.75;5.60;;;;;;;;;;4954288;29;20031;-66
2022/04/05 06:31:53;;;;;;;9.55;5.93;;;;;;;;;;4954539;29;20023;-67
2022/04/05 06:34:19;;;;;;;12.93;5.45;;;;;;;;;;4954349;29;20409;-66
2022/04/05 06:36:45;;;;;;;10.75;4.82;;;;;;;;;;4950984;28;20575;-65
2022/04/05 06:39:11;;;;;;;10.95;5.55;;;;;;;;;;4942909;29;20082;-66
2022/04/05 06:41:37;;;;;;;9.77;5.10;;;;;;;;;;4944733;29;20118;-63
2022/04/05 06:44:04;;;;;;;10.35;4.13;;;;;;;;;;4951320;29;20046;-67
2022/04/05 06:46:30;;;;;;;7.65;4.65;;;;;;;;;;4953252;29;20051;-67
2022/04/05 06:48:56;;;;;;;8.48;4.70;;;;;;;;;;4953247;29;20387;-73
2022/04/05 06:51:22;;;;;;;11.55;4.28;;;;;;;;;;4952705;29;20369;-67
2022/04/05 06:53:48;;;;;;;10.15;5.20;;;;;;;;;;4952801;29;20443;-69
2022/04/05 06:56:14;;;;;;;9.93;4.20;;;;;;;;;;4952994;29;20028;-68
2022/04/05 06:58:40;;;;;;;14.80;6.55;;;;;;;;;;4954238;29;20039;-71
2022/04/05 07:01:06;;;;;;;13.55;5.95;;;;;;;;;;4954110;29;20066;-70
2022/04/05 07:03:32;;;;;;;10.60;4.50;;;;;;;;;;4952919;29;20038;-68
2022/04/05 07:05:58;;;;;;;10.90;5.15;;;;;;;;;;4954371;29;20425;-71
2022/04/05 07:08:24;;;;;;;15.00;5.75;;;;;;;;;;4954409;29;20357;-70
2022/04/05 07:10:51;;;;;;;32.80;16.17;;;;;;;;;;4954238;29;20027;-71
2022/04/05 07:13:17;;;;;;;24.52;15.10;;;;;;;;;;4954008;29;20031;-69
2022/04/05 07:15:43;;;;;;;14.77;8.27;;;;;;;;;;4953902;29;20031;-70
2022/04/05 07:18:09;;;;;;;8.20;4.70;;;;;;;;;;4953648;29;20046;-70
2022/04/05 07:20:37;;;;;;;9.65;4.45;;;;;;;;;;4953965;29;20454;-70
2022/04/05 07:23:03;;;;;;;8.18;4.60;;;;;;;;;;4935645;29;20058;-70
2022/04/05 07:25:30;;;;;;;8.52;4.55;;;;;;;;;;4953553;29;20027;-71
2022/04/05 07:27:56;;;;;;;9.05;4.63;;;;;;;;;;4953438;29;20026;-70
2022/04/05 07:30:24;;;;;;;5.90;3.50;;;;;;;;;;4953596;29;20063;-69
2022/04/05 07:32:50;;;;;;;8.70;3.90;;;;;;;;;;4953424;29;20048;-71
2022/04/05 07:35:17;;;;;;;7.22;3.80;;;;;;;;;;4953355;29;20027;-69
2022/04/05 07:37:43;;;;;;;7.35;4.00;;;;;;;;;;4953441;29;20015;-70
2022/04/05 07:40:13;;;;;;;9.40;4.38;;;;;;;;;;4953398;29;20030;-70
2022/04/05 07:42:39;;;;;;;7.47;3.88;;;;;;;;;;4953401;29;20059;-70
2022/04/05 07:45:06;;;;;;;8.00;4.00;;;;;;;;;;4953536;29;20031;-70
2022/04/05 07:47:32;;;;;;;9.50;4.00;;;;;;;;;;4935944;29;20050;-71
2022/04/05 07:49:58;;;;;;;8.40;4.15;;;;;;;;;;4953586;29;20473;-70
2022/04/05 07:52:24;;;;;;;7.95;4.22;;;;;;;;;;4953196;29;20446;-70
2022/04/05 07:54:50;;;;;;;9.15;4.10;;;;;;;;;;4953178;29;20065;-72
2022/04/05 07:57:16;;;;;;;9.77;4.20;;;;;;;;;;4953340;29;20170;-71
2022/04/05 07:59:42;;;;;;;8.70;4.45;;;;;;;;;;4952874;29;20090;-70
2022/04/05 08:02:09;;;;;;;7.47;4.50;;;;;;;;;;4952871;29;20023;-70
2022/04/05 08:04:35;;;;;;;10.00;4.90;;;;;;;;;;4953187;29;20488;-69
2022/04/05 08:07:01;;;;;;;7.50;4.47;;;;;;;;;;4952896;29;20039;-71
2022/04/05 08:09:27;;;;;;;9.02;4.45;;;;;;;;;;4953072;29;20031;-70
2022/04/05 08:11:53;;;;;;;9.80;4.10;;;;;;;;;;4952854;29;20137;-70
2022/04/05 08:14:20;;;;;;;6.68;4.25;;;;;;;;;;4952979;29;20038;-70
2022/04/05 08:16:46;;;;;;;9.40;4.35;;;;;;;;;;4953083;29;20479;-71
2022/04/05 08:19:12;;;;;;;6.57;3.90;;;;;;;;;;4952910;29;20035;-69
2022/04/05 08:21:38;;;;;;;11.00;4.07;;;;;;;;;;4952428;29;20058;-68
2022/04/05 08:24:04;;;;;;;6.88;3.97;;;;;;;;;;4952350;29;20127;-70
2022/04/05 08:26:31;;;;;;;7.97;3.97;;;;;;;;;;4952782;29;20086;-69
2022/04/05 08:28:57;;;;;;;8.52;3.92;;;;;;;;;;4952818;29;20106;-69
2022/04/05 08:31:23;;;;;;;7.53;3.85;;;;;;;;;;4952494;29;20058;-69
2022/04/05 08:33:50;;;;;;;5.57;3.53;;;;;;;;;;4952687;29;20142;-69
2022/04/05 08:36:17;;;;;;;8.13;4.57;;;;;;;;;;4953113;29;20480;-70
2022/04/05 08:38:43;;;;;;;7.53;4.47;;;;;;;;;;4952368;29;20387;-68
2022/04/05 08:41:12;;;;;;;8.88;4.40;;;;;;;;;;4952689;29;20023;-69
2022/04/05 08:43:42;;;;;;;9.25;4.93;;;;;;;;;;4952363;29;20040;-67
2022/04/05 08:46:10;;;;;;;7.65;4.78;;;;;;;;;;4952695;29;20527;-69
2022/04/05 08:48:36;;;;;;;9.27;4.47;;;;;;;;;;4952594;29;20027;-68
2022/04/05 08:51:04;;;;;;;8.60;4.28;;;;;;;;;;4951699;29;20944;-65
2022/04/05 08:53:31;;;;;;;6.90;4.28;;;;;;;;;;4952380;29;20035;-68
2022/04/05 08:55:57;;;;;;;8.93;4.55;;;;;;;;;;4952473;29;20039;-65
2022/04/05 08:58:23;;;;;;;10.95;5.35;;;;;;;;;;4952281;29;20024;-65
2022/04/05 09:00:51;;;;;;;9.13;4.20;;;;;;;;;;4955609;28;20035;-66
2022/04/05 09:03:17;;;;;;;27.90;14.05;;;;;;;;;;4955886;29;20039;-67
2022/04/05 09:05:44;;;;;;;19.92;9.18;;;;;;;;;;4955653;29;20024;-66
2022/04/05 09:08:13;;;;;;;15.13;6.78;;;;;;;;;;4954532;29;20088;-67
2022/04/05 09:10:40;;;;;;;8.85;4.65;;;;;;;;;;4956014;29;20027;-68
2022/04/05 09:13:09;;;;;;;9.52;3.42;;;;;;;;;;4955421;29;20460;-68
2022/04/05 09:15:35;;;;;;;10.15;4.38;;;;;;;;;;4954319;29;20102;-68
2022/04/05 09:18:01;;;;;;;10.13;4.63;;;;;;;;;;4954884;29;20031;-67
2022/04/05 09:20:28;;;;;;;8.75;3.70;;;;;;;;;;4954789;29;20125;-69
2022/04/05 09:22:54;;;;;;;9.20;4.05;;;;;;;;;;4953486;29;20117;-67
2022/04/05 09:25:21;;;;;;;9.85;4.63;;;;;;;;;;4955246;29;20051;-68
2022/04/05 09:27:54;;;;;;;11.95;5.30;;;;;;;;;;4955653;29;20063;-68
2022/04/05 09:30:24;;;;;;;7.25;3.78;;;;;;;;;;4955806;29;20023;-68
2022/04/05 09:32:52;;;;;;;7.10;2.92;;;;;;;;;;4955716;29;20527;-68
2022/04/05 09:35:19;;;;;;;6.97;3.17;;;;;;;;;;4955772;29;20037;-65
2022/04/05 09:37:46;;;;;;;4.53;2.80;;;;;;;;;;4955706;29;20032;-68
2022/04/05 09:40:14;;;;;;;7.30;2.92;;;;;;;;;;4955521;29;20157;-66
2022/04/05 09:42:59;;;;;;;4.97;2.97;;;;;;;;;;4955485;29;20455;-70
2022/04/05 09:45:44;;;;;;;6.20;2.95;;;;;;;;;;4955428;29;20054;-67
2022/04/05 09:48:10;;;;;;;7.57;4.25;;;;;;;;;;4955479;29;20090;-68
2022/04/05 09:50:55;;;;;;;7.82;4.40;;;;;;;;;;4955507;29;20026;-68
2022/04/05 09:53:21;;;;;;;4.93;2.85;;;;;;;;;;4937698;29;20444;-68
2022/04/05 09:55:47;;;;;;;5.85;2.40;;;;;;;;;;4955028;29;20035;-77
2022/04/05 09:58:14;;;;;;;5.70;2.58;;;;;;;;;;4955233;29;20023;-69
2022/04/05 10:00:41;;;;;;;5.97;2.60;;;;;;;;;;4954656;29;20380;-69
2022/04/05 10:03:09;;;;;;;5.30;2.53;;;;;;;;;;4954978;29;20067;-68
2022/04/05 10:05:35;;;;;;;8.73;2.80;;;;;;;;;;4955211;29;20023;-69
2022/04/05 10:08:02;;;;;;;6.15;3.30;;;;;;;;;;4954757;29;20043;-69
2022/04/05 10:10:28;;;;;;;6.65;2.80;;;;;;;;;;4953306;28;20031;-65
2022/04/05 10:12:54;;;;;;;5.18;2.50;;;;;;;;;;4954014;29;20031;-68
2022/04/05 10:15:21;;;;;;;5.72;3.20;;;;;;;;;;4954851;29;20068;-67
2022/04/05 10:17:49;;;;;;;6.50;3.45;;;;;;;;;;4954837;29;20031;-66
2022/04/05 10:20:16;;;;;;;9.23;4.22;;;;;;;;;;4954753;29;20035;-67
2022/04/05 10:22:42;;;;;;;5.72;2.78;;;;;;;;;;4954443;29;20031;-67
2022/04/05 10:25:09;;;;;;;8.73;3.05;;;;;;;;;;4954500;29;20046;-69
2022/04/05 10:27:35;;;;;;;6.35;2.90;;;;;;;;;;4954815;29;20023;-68
2022/04/05 10:30:05;;;;;;;6.25;3.28;;;;;;;;;;4954656;29;20039;-68
2022/04/05 10:32:43;;;;;;;5.78;3.17;;;;;;;;;;4953956;29;20161;-69
2022/04/05 10:35:10;;;;;;;6.22;3.58;;;;;;;;;;4953738;29;20480;-69
2022/04/05 10:37:38;;;;;;;8.32;3.10;;;;;;;;;;4954076;29;20035;-71
2022/04/05 10:40:10;;;;;;;8.35;3.55;;;;;;;;;;4954108;29;20095;-70
2022/04/05 10:42:52;;;;;;;5.97;3.17;;;;;;;;;;4954375;29;20050;-70
2022/04/05 10:45:20;;;;;;;5.35;3.10;;;;;;;;;;4954441;29;20033;-70
2022/04/05 10:48:05;;;;;;;8.85;3.55;;;;;;;;;;4953959;29;20027;-72
2022/04/05 10:50:31;;;;;;;6.40;3.08;;;;;;;;;;4954096;29;20135;-71
2022/04/05 10:53:17;;;;;;;5.25;2.97;;;;;;;;;;4953579;29;20039;-71
2022/04/05 10:56:01;;;;;;;6.25;3.33;;;;;;;;;;4953079;29;20031;-69
2022/04/05 10:58:28;;;;;;;5.75;3.05;;;;;;;;;;4952483;29;20491;-69
2022/04/05 11:01:12;;;;;;;7.03;2.92;;;;;;;;;;4953128;29;20106;-69
2022/04/05 11:03:38;;;;;;;7.65;2.70;;;;;;;;;;4953225;29;20439;-67
2022/04/05 11:06:04;;;;;;;6.82;2.80;;;;;;;;;;4953913;29;20052;-67
2022/04/05 11:08:32;;;;;;;6.57;2.90;;;;;;;;;;4952261;29;20074;-68
2022/04/05 11:11:04;;;;;;;7.30;2.80;;;;;;;;;;4952599;29;20451;-71
2022/04/05 11:13:35;;;;;;;8.23;2.17;;;;;;;;;;4953827;29;20034;-69
2022/04/05 11:16:01;;;;;;;6.18;2.72;;;;;;;;;;4954240;29;20031;-66
2022/04/05 11:18:29;;;;;;;6.78;2.55;;;;;;;;;;4953685;29;20027;-67
2022/04/05 11:20:56;;;;;;;8.77;2.67;;;;;;;;;;4954216;29;20079;-68
2022/04/05 11:23:41;;;;;;;5.28;2.67;;;;;;;;;;4952988;28;20403;-67
2022/04/05 11:26:25;;;;;;;7.20;2.58;;;;;;;;;;4952282;29;20049;-67
2022/04/05 11:28:52;;;;;;;4.60;2.42;;;;;;;;;;4953836;29;20498;-66
2022/04/05 11:31:28;;;;;;;8.43;3.13;;;;;;;;;;4935704;29;20391;-66
2022/04/05 11:33:54;;;;;;;5.30;2.58;;;;;;;;;;4953105;29;20058;-66
2022/04/05 11:36:23;;;;;;;5.80;2.90;;;;;;;;;;4952948;29;20039;-66
2022/04/05 11:38:58;;;;;;;6.07;2.30;;;;;;;;;;4952377;29;20031;-67
2022/04/05 11:41:24;;;;;;;6.15;2.42;;;;;;;;;;4952962;29;20035;-66
2022/04/05 11:43:57;;;;;;;4.65;2.33;;;;;;;;;;4952970;29;20566;-65
2022/04/05 11:46:28;;;;;;;4.85;2.47;;;;;;;;;;4952301;29;20035;-64
2022/04/05 11:48:58;;;;;;;5.68;2.10;;;;;;;;;;4952677;29;20049;-63
2022/04/05 11:51:28;;;;;;;4.95;2.33;;;;;;;;;;4953065;29;20071;-64
2022/04/05 11:54:13;;;;;;;5.53;2.30;;;;;;;;;;4952116;29;20099;-66
2022/04/05 11:56:42;;;;;;;4.50;2.40;;;;;;;;;;4951212;29;20163;-67
2022/04/05 11:59:09;;;;;;;6.53;2.53;;;;;;;;;;4952249;29;20037;-64
2022/04/05 12:01:39;;;;;;;4.80;2.47;;;;;;;;;;4951238;29;20031;-67
2022/04/05 12:04:08;;;;;;;5.57;2.70;;;;;;;;;;4952976;29;20190;-65
2022/04/05 12:06:38;;;;;;;4.70;2.25;;;;;;;;;;4952820;29;20027;-64
2022/04/05 12:09:07;;;;;;;4.28;2.13;;;;;;;;;;4953126;29;20554;-64
2022/04/05 12:11:33;;;;;;;3.92;2.20;;;;;;;;;;4953041;29;20031;-65
2022/04/05 12:14:13;;;;;;;4.00;1.95;;;;;;;;;;4952582;29;20035;-66
2022/04/05 12:16:49;;;;;;;4.70;1.98;;;;;;;;;;4952773;29;20070;-66
2022/04/05 12:19:23;;;;;;;4.47;2.08;;;;;;;;;;4953046;29;20023;-66
2022/04/05 12:21:55;;;;;;;4.55;2.28;;;;;;;;;;4952685;29;20399;-67
2022/04/05 12:24:21;;;;;;;5.15;2.00;;;;;;;;;;4951958;29;20043;-65
2022/04/05 12:26:47;;;;;;;5.35;2.40;;;;;;;;;;4952601;29;20578;-64
2022/04/05 12:29:14;;;;;;;4.03;2.13;;;;;;;;;;4952396;29;20361;-67
2022/04/05 12:31:40;;;;;;;4.72;2.50;;;;;;;;;;4934764;29;20528;-68
2022/04/05 12:34:11;;;;;;;5.93;3.00;;;;;;;;;;4951402;29;20055;-65
2022/04/05 12:36:37;;;;;;;6.50;2.70;;;;;;;;;;4952820;29;20099;-64
2022/04/05 12:39:05;;;;;;;7.40;3.70;;;;;;;;;;4952310;29;20031;-63
2022/04/05 12:41:37;;;;;;;4.22;2.00;;;;;;;;;;4952777;29;20030;-65
2022/04/05 12:44:04;;;;;;;4.18;2.10;;;;;;;;;;4952148;29;20054;-65
2022/04/05 12:46:38;;;;;;;6.57;2.40;;;;;;;;;;4952496;29;20055;-64
2022/04/05 12:49:17;;;;;;;8.68;2.13;;;;;;;;;;4952298;29;20391;-65
2022/04/05 12:51:43;;;;;;;5.57;2.30;;;;;;;;;;4952165;29;20035;-64
2022/04/05 12:54:24;;;;;;;3.47;1.90;;;;;;;;;;4951589;29;20036;-65
2022/04/05 12:56:51;;;;;;;6.13;2.15;;;;;;;;;;4952387;29;20050;-65
2022/04/05 12:59:26;;;;;;;6.32;2.55;;;;;;;;;;4952285;29;20027;-66
2022/04/05 13:01:56;;;;;;;4.65;2.03;;;;;;;;;;4951920;29;20110;-65
2022/04/05 13:04:24;;;;;;;3.40;1.90;;;;;;;;;;4952195;29;20067;-68
2022/04/05 13:06:54;;;;;;;3.97;1.70;;;;;;;;;;4952100;29;20024;-69
2022/04/05 13:09:27;;;;;;;6.88;1.92;;;;;;;;;;4952195;29;20091;-66
2022/04/05 13:12:07;;;;;;;5.07;1.85;;;;;;;;;;4952168;29;20024;-66
2022/04/05 13:14:33;;;;;;;6.03;2.10;;;;;;;;;;4952339;29;20023;-68
2022/04/05 13:17:03;;;;;;;7.75;2.42;;;;;;;;;;4952438;29;20038;-70
2022/04/05 13:19:29;;;;;;;6.40;2.20;;;;;;;;;;4952230;29;20032;-69
2022/04/05 13:21:56;;;;;;;6.05;2.55;;;;;;;;;;4951986;29;20066;-69
2022/04/05 13:24:23;;;;;;;3.50;2.03;;;;;;;;;;4951463;29;20495;-68
2022/04/05 13:26:50;;;;;;;6.75;2.58;;;;;;;;;;4950951;29;20073;-67
2022/04/05 13:29:17;;;;;;;5.43;2.00;;;;;;;;;;4952328;29;20792;-69
2022/04/05 13:31:47;;;;;;;4.30;1.85;;;;;;;;;;4952424;29;20083;-68
2022/04/05 13:34:14;;;;;;;4.68;2.20;;;;;;;;;;4952056;29;20055;-72
2022/04/05 13:36:40;;;;;;;6.30;2.20;;;;;;;;;;4952114;29;20031;-68
2022/04/05 13:39:06;;;;;;;5.22;1.90;;;;;;;;;;4951902;29;20023;-68
2022/04/05 13:41:33;;;;;;;6.65;2.20;;;;;;;;;;4951820;29;20483;-69
2022/04/05 13:44:00;;;;;;;6.68;2.22;;;;;;;;;;4952336;29;20039;-70
2022/04/05 13:46:26;;;;;;;3.80;1.80;;;;;;;;;;4954270;28;20035;-64
2022/04/05 13:48:52;;;;;;;7.43;2.05;;;;;;;;;;4955551;29;20399;-63
2022/04/05 13:51:20;;;;;;;2.92;1.77;;;;;;;;;;4955276;29;20459;-70
2022/04/05 13:53:46;;;;;;;10.60;2.35;;;;;;;;;;4955622;29;20399;-71
2022/04/05 13:56:13;;;;;;;2.80;1.50;;;;;;;;;;4953699;29;20027;-77
2022/04/05 13:58:39;;;;;;;3.40;1.80;;;;;;;;;;4955299;29;20487;-70
2022/04/05 14:01:05;;;;;;;3.78;2.00;;;;;;;;;;4955152;29;20121;-70
2022/04/05 14:03:32;;;;;;;4.93;2.20;;;;;;;;;;4955060;29;20081;-69
2022/04/05 14:05:58;;;;;;;5.43;2.72;;;;;;;;;;4955067;29;20035;-67
2022/04/05 14:08:24;;;;;;;4.85;1.90;;;;;;;;;;4954748;29;20042;-72
2022/04/05 14:10:50;;;;;;;6.25;2.55;;;;;;;;;;4954934;29;20608;-68
2022/04/05 14:13:16;;;;;;;7.55;2.33;;;;;;;;;;4955036;29;20038;-70
2022/04/05 14:15:42;;;;;;;5.47;2.25;;;;;;;;;;4955270;29;20086;-67
2022/04/05 14:18:08;;;;;;;8.43;2.80;;;;;;;;;;4955093;29;20027;-70
2022/04/05 14:20:34;;;;;;;6.80;2.28;;;;;;;;;;4954538;29;20072;-68
2022/04/05 14:23:00;;;;;;;6.47;2.15;;;;;;;;;;4954326;29;20125;-67
2022/04/05 14:25:27;;;;;;;4.05;2.00;;;;;;;;;;4954646;29;20046;-66
2022/04/05 14:27:53;;;;;;;4.15;1.95;;;;;;;;;;4953639;29;20122;-63
2022/04/05 14:30:19;;;;;;;5.22;2.00;;;;;;;;;;4954130;29;20038;-69
2022/04/05 14:32:45;;;;;;;3.40;1.70;;;;;;;;;;4953521;29;20051;-63
2022/04/05 14:35:11;;;;;;;4.40;2.10;;;;;;;;;;4953904;29;20027;-73